Time;durP1;ratioP1;P1;durP2;ratioP2;P2;SDS_P1;SDS_P2;PMS_P1;PMS_P2;Temp;Humidity;BMP_temperature;BMP_pressure;BME280_temperature;BME280_humidity;BME280_pressure;Samples;Min_cycle;Max_cycle;Signal;HPM_P1;HPM_P2
2022/08/16 00:00:23;;;;;;;3.25;1.95;;;20.20;92.10;20.30;99751.00;;;;4954472;28;95281;-64
2022/08/16 00:02:50;;;;;;;3.15;2.30;;;20.10;92.50;20.20;99748.00;;;;4956796;28;88455;-64
2022/08/16 00:05:16;;;;;;;2.88;2.08;;;20.10;92.90;20.20;99751.00;;;;4956887;28;89053;-63
2022/08/16 00:07:42;;;;;;;3.05;2.60;;;20.00;93.50;20.10;99752.00;;;;4957163;28;87943;-64
2022/08/16 00:10:12;;;;;;;3.25;2.30;;;20.00;93.50;20.10;99748.00;;;;4956372;28;108192;-64
2022/08/16 00:12:41;;;;;;;2.95;2.55;;;19.90;93.80;20.00;99756.00;;;;4956663;28;102145;-64
2022/08/16 00:15:15;;;;;;;2.83;2.00;;;19.90;94.00;20.00;99755.00;;;;4971042;28;87971;-64
2022/08/16 00:17:41;;;;;;;10.50;1.95;;;19.90;94.30;20.00;99753.00;;;;4971423;28;88040;-63
2022/08/16 00:20:08;;;;;;;3.40;1.70;;;19.80;94.50;20.00;99752.00;;;;4955908;28;98285;-64
2022/08/16 00:22:38;;;;;;;3.33;2.53;;;19.80;94.60;19.90;99747.00;;;;4956371;28;88340;-64
2022/08/16 00:25:08;;;;;;;3.03;1.65;;;19.80;94.80;19.90;99742.00;;;;4956732;28;87979;-63
2022/08/16 00:27:34;;;;;;;3.20;2.95;;;19.80;95.10;19.90;99741.00;;;;4937567;28;87873;-64
2022/08/16 00:30:00;;;;;;;2.92;1.75;;;19.70;95.20;19.90;99736.00;;;;4956276;28;87804;-64
2022/08/16 00:32:26;;;;;;;2.38;2.17;;;19.70;95.40;19.80;99735.00;;;;4955390;28;118045;-63
2022/08/16 00:34:52;;;;;;;4.70;2.25;;;19.70;95.60;19.80;99740.00;;;;4955914;28;89708;-64
2022/08/16 00:37:20;;;;;;;4.95;3.28;;;19.60;95.70;19.80;99740.00;;;;4956457;28;110896;-64
2022/08/16 00:39:46;;;;;;;3.72;1.80;;;19.60;95.90;19.70;99735.00;;;;4956126;28;87718;-64
2022/08/16 00:42:12;;;;;;;2.95;2.53;;;19.60;96.10;19.70;99731.00;;;;4956020;28;88870;-63
2022/08/16 00:44:42;;;;;;;3.47;3.00;;;19.50;96.40;19.60;99728.00;;;;4954817;28;106286;-64
2022/08/16 00:47:15;;;;;;;2.65;2.28;;;19.50;96.70;19.60;99730.00;;;;4956499;28;87710;-64
2022/08/16 00:49:40;;;;;;;2.20;1.98;;;19.40;96.80;19.50;99735.00;;;;4960520;28;87825;-64
2022/08/16 00:52:07;;;;;;;2.92;2.13;;;19.40;97.00;19.40;99737.00;;;;4954724;28;117315;-64
2022/08/16 00:54:32;;;;;;;2.08;1.88;;;19.30;97.20;19.40;99744.00;;;;4955805;28;90939;-64
2022/08/16 00:57:03;;;;;;;2.40;2.15;;;19.30;97.40;19.40;99753.00;;;;4956480;28;87778;-64
2022/08/16 00:59:34;;;;;;;3.80;1.83;;;19.20;97.70;19.40;99750.00;;;;4956237;28;87889;-64
2022/08/16 01:02:02;;;;;;;3.28;2.58;;;19.20;97.90;19.30;99745.00;;;;4954189;28;88445;-64
2022/08/16 01:04:28;;;;;;;2.60;2.15;;;19.20;98.10;19.30;99748.00;;;;4954803;28;99257;-64
2022/08/16 01:06:55;;;;;;;6.35;3.00;;;19.20;98.30;19.30;99743.00;;;;4954320;28;109545;-64
2022/08/16 01:09:21;;;;;;;3.08;1.90;;;19.10;98.50;19.20;99745.00;;;;4955131;28;88861;-64
2022/08/16 01:11:47;;;;;;;2.67;2.33;;;19.10;98.70;19.20;99747.00;;;;4955505;28;88550;-64
2022/08/16 01:14:20;;;;;;;5.88;2.33;;;19.10;98.80;19.20;99747.00;;;;4952531;28;119372;-65
2022/08/16 01:16:48;;;;;;;2.92;2.63;;;19.00;98.90;19.10;99747.00;;;;4970354;28;88091;-64
2022/08/16 01:19:40;;;;;;;2.95;2.30;;;19.00;99.20;19.10;99747.00;;;;4955696;28;87980;-64
2022/08/16 01:22:43;;;;;;;8.30;1.25;;;19.00;99.40;19.00;99749.00;;;;4952809;28;110236;-64
2022/08/16 01:25:25;;;;;;;2.65;1.98;;;18.90;99.50;18.90;99740.00;;;;4952896;28;103576;-64
2022/08/16 01:27:54;;;;;;;2.40;2.08;;;18.90;99.70;18.90;99744.00;;;;4953727;28;86932;-64
2022/08/16 01:30:37;;;;;;;3.72;2.80;;;18.80;99.80;18.90;99740.00;;;;4970613;28;87679;-64
2022/08/16 01:33:05;;;;;;;6.00;3.83;;;18.80;99.90;18.90;99736.00;;;;4953486;28;88276;-64
2022/08/16 01:35:58;;;;;;;3.67;2.20;;;18.70;99.90;18.80;99730.00;;;;4954610;28;88894;-63
2022/08/16 01:38:33;;;;;;;4.68;1.95;;;18.70;99.90;18.80;99729.00;;;;4953162;28;87904;-64
2022/08/16 01:41:17;;;;;;;2.90;2.03;;;18.70;99.90;18.80;99734.00;;;;4955493;28;87707;-64
2022/08/16 01:43:45;;;;;;;2.85;2.10;;;18.60;99.90;18.80;99738.00;;;;4955572;28;87589;-64
2022/08/16 01:46:31;;;;;;;3.42;2.47;;;18.60;99.90;18.70;99739.00;;;;4954875;28;88372;-64
2022/08/16 01:49:02;;;;;;;4.60;2.08;;;18.60;99.90;18.70;99733.00;;;;4940295;28;101644;-64
2022/08/16 01:51:30;;;;;;;3.38;2.22;;;18.50;99.90;18.60;99735.00;;;;4936053;28;87700;-64
2022/08/16 01:53:56;;;;;;;2.10;1.92;;;18.50;99.90;18.60;99744.00;;;;4948685;28;88055;-64
2022/08/16 01:56:23;;;;;;;2.92;2.45;;;18.50;99.90;18.50;99751.00;;;;4954358;28;110051;-64
2022/08/16 01:58:50;;;;;;;3.20;2.40;;;18.40;99.90;18.50;99751.00;;;;4954787;28;87717;-64
2022/08/16 02:01:15;;;;;;;2.58;2.38;;;18.40;99.90;18.50;99750.00;;;;4954057;28;102040;-64
2022/08/16 02:03:41;;;;;;;3.63;2.70;;;18.40;99.90;18.50;99756.00;;;;4953842;28;117750;-64
2022/08/16 02:06:07;;;;;;;3.13;2.30;;;18.30;99.90;18.40;99744.00;;;;4955275;28;88507;-64
2022/08/16 02:08:33;;;;;;;2.05;1.90;;;18.30;99.90;18.40;99747.00;;;;4954275;28;111049;-64
2022/08/16 02:11:01;;;;;;;3.35;2.63;;;18.30;99.90;18.40;99754.00;;;;4954315;28;107848;-64
2022/08/16 02:13:27;;;;;;;3.72;1.85;;;18.30;99.90;18.40;99744.00;;;;4955001;28;88732;-65
2022/08/16 02:15:52;;;;;;;2.83;2.58;;;18.30;99.90;18.30;99744.00;;;;4953704;28;117124;-64
2022/08/16 02:18:18;;;;;;;4.60;2.88;;;18.20;99.90;18.20;99744.00;;;;4954978;28;109914;-64
2022/08/16 02:20:49;;;;;;;2.35;2.15;;;18.10;99.90;18.20;99759.00;;;;4955191;28;88006;-64
2022/08/16 02:23:15;;;;;;;2.97;2.78;;;18.10;99.90;18.20;99755.00;;;;4955624;28;88319;-65
2022/08/16 02:25:40;;;;;;;4.22;2.65;;;18.00;99.90;18.10;99755.00;;;;4953411;28;118143;-64
2022/08/16 02:28:06;;;;;;;2.47;2.13;;;18.00;99.90;18.00;99765.00;;;;4954346;28;97110;-64
2022/08/16 02:30:32;;;;;;;3.15;2.33;;;17.90;99.90;17.90;99760.00;;;;4953737;28;108829;-64
2022/08/16 02:32:58;;;;;;;2.75;2.50;;;17.80;99.90;17.90;99757.00;;;;4953581;28;88986;-64
2022/08/16 02:35:25;;;;;;;6.43;3.03;;;17.80;99.90;17.90;99760.00;;;;4954103;28;88638;-64
2022/08/16 02:37:52;;;;;;;5.57;2.40;;;17.80;99.90;17.90;99772.00;;;;4954843;28;87776;-64
2022/08/16 02:40:20;;;;;;;4.10;2.38;;;17.70;99.90;17.90;99768.00;;;;4955365;28;88002;-64
2022/08/16 02:42:48;;;;;;;6.45;2.28;;;17.70;99.90;17.80;99766.00;;;;4954249;28;97106;-63
2022/08/16 02:45:16;;;;;;;4.00;3.60;;;17.70;99.90;17.80;99769.00;;;;4954939;28;87913;-63
2022/08/16 02:47:41;;;;;;;3.25;2.47;;;17.70;99.90;17.80;99776.00;;;;4954995;28;87893;-64
2022/08/16 02:50:09;;;;;;;9.15;2.80;;;17.70;99.90;17.80;99770.00;;;;4953362;28;106877;-64
2022/08/16 02:52:35;;;;;;;3.03;2.42;;;17.70;99.90;17.80;99773.00;;;;4954156;28;87928;-63
2022/08/16 02:55:01;;;;;;;4.20;2.45;;;17.70;99.90;17.70;99775.00;;;;4954831;28;88798;-63
2022/08/16 02:57:27;;;;;;;3.63;2.25;;;17.60;99.90;17.70;99769.00;;;;4953996;28;95651;-63
2022/08/16 02:59:52;;;;;;;3.00;2.30;;;17.60;99.90;17.70;99770.00;;;;4954197;28;89896;-64
2022/08/16 03:02:18;;;;;;;4.68;2.42;;;17.60;99.90;17.70;99779.00;;;;4952756;28;116823;-63
2022/08/16 03:04:44;;;;;;;2.72;2.53;;;17.60;99.90;17.70;99776.00;;;;4954085;28;88870;-63
2022/08/16 03:07:11;;;;;;;2.75;2.55;;;17.60;99.90;17.70;99777.00;;;;4956695;28;110558;-63
2022/08/16 03:09:37;;;;;;;8.27;3.47;;;17.60;99.90;17.70;99780.00;;;;4944602;28;87725;-63
2022/08/16 03:12:04;;;;;;;2.95;1.95;;;17.60;99.90;17.60;99773.00;;;;4957827;28;101124;-63
2022/08/16 03:14:32;;;;;;;2.53;2.33;;;17.50;99.90;17.60;99780.00;;;;4954726;28;89847;-64
2022/08/16 03:16:58;;;;;;;3.88;2.78;;;17.50;99.90;17.60;99779.00;;;;4956984;28;88909;-64
2022/08/16 03:19:24;;;;;;;2.90;2.60;;;17.50;99.90;17.60;99778.00;;;;4957004;28;87969;-64
2022/08/16 03:21:50;;;;;;;2.95;2.67;;;17.50;99.90;17.50;99781.00;;;;4956894;28;89126;-64
2022/08/16 03:24:16;;;;;;;4.53;3.05;;;17.40;99.90;17.50;99780.00;;;;4957100;28;107114;-64
2022/08/16 03:26:41;;;;;;;4.85;2.67;;;17.40;99.90;17.50;99774.00;;;;4956958;28;104998;-64
2022/08/16 03:29:07;;;;;;;4.90;3.25;;;17.40;99.90;17.50;99780.00;;;;4956568;28;109011;-64
2022/08/16 03:31:33;;;;;;;4.28;2.75;;;17.30;99.90;17.50;99785.00;;;;4956856;28;116588;-64
2022/08/16 03:33:59;;;;;;;2.85;2.53;;;17.30;99.90;17.40;99789.00;;;;4955862;28;115694;-64
2022/08/16 03:36:24;;;;;;;4.35;2.72;;;17.30;99.90;17.40;99789.00;;;;4957548;28;87931;-64
2022/08/16 03:38:50;;;;;;;3.03;2.50;;;17.30;99.90;17.40;99790.00;;;;4957054;28;89054;-64
2022/08/16 03:41:16;;;;;;;3.90;2.72;;;17.30;99.90;17.40;99781.00;;;;4956331;28;116893;-64
2022/08/16 03:43:41;;;;;;;4.32;2.65;;;17.00;99.90;17.40;99785.00;;;;4955977;28;119029;-64
2022/08/16 03:46:09;;;;;;;2.50;2.25;;;17.20;99.90;17.30;99782.00;;;;4957565;28;108986;-64
2022/08/16 03:48:37;;;;;;;3.05;2.17;;;17.20;99.90;17.30;99782.00;;;;4956620;28;87850;-64
2022/08/16 03:51:07;;;;;;;3.88;3.13;;;17.20;99.90;17.30;99788.00;;;;4971356;28;88360;-64
2022/08/16 03:53:34;;;;;;;3.42;2.72;;;17.20;99.90;17.30;99783.00;;;;4956833;28;88216;-64
2022/08/16 03:56:00;;;;;;;7.90;3.58;;;17.20;99.90;17.30;99790.00;;;;4957436;28;87057;-64
2022/08/16 03:58:25;;;;;;;7.05;3.70;;;17.10;99.90;17.30;99796.00;;;;4956461;28;95404;-64
2022/08/16 04:00:54;;;;;;;3.97;2.63;;;17.20;99.90;17.30;99800.00;;;;4955340;28;118239;-64
2022/08/16 04:03:20;;;;;;;6.85;3.33;;;17.20;99.90;17.30;99800.00;;;;4969778;28;88762;-63
2022/08/16 04:05:49;;;;;;;5.05;3.40;;;17.10;99.90;17.30;99802.00;;;;4957475;28;87754;-63
2022/08/16 04:08:19;;;;;;;3.75;3.40;;;17.20;99.90;17.30;99805.00;;;;4956381;28;87991;-63
2022/08/16 04:10:45;;;;;;;4.50;3.85;;;17.20;99.90;17.30;99811.00;;;;4956121;28;89636;-64
2022/08/16 04:13:11;;;;;;;3.92;3.15;;;17.20;99.90;17.30;99818.00;;;;4955720;28;118371;-63
2022/08/16 04:15:37;;;;;;;4.25;2.75;;;17.20;99.90;17.30;99817.00;;;;4956513;28;91919;-63
2022/08/16 04:18:04;;;;;;;4.28;3.05;;;17.20;99.90;17.40;99811.00;;;;4956191;28;87626;-64
2022/08/16 04:20:31;;;;;;;5.28;3.67;;;17.20;99.90;17.40;99823.00;;;;4956136;28;87591;-64
2022/08/16 04:22:57;;;;;;;3.78;3.42;;;17.20;99.90;17.40;99820.00;;;;4946434;28;88230;-64
2022/08/16 04:25:24;;;;;;;4.95;3.95;;;17.30;99.90;17.50;99813.00;;;;4941251;28;101692;-64
2022/08/16 04:27:50;;;;;;;4.93;4.13;;;17.30;99.90;17.50;99817.00;;;;4941589;28;88819;-64
2022/08/16 04:30:18;;;;;;;4.43;3.85;;;17.30;99.90;17.50;99833.00;;;;4935887;28;116721;-64
2022/08/16 04:32:45;;;;;;;5.10;3.65;;;17.30;99.90;17.60;99834.00;;;;4949517;28;88121;-64
2022/08/16 04:35:16;;;;;;;3.53;3.22;;;17.40;99.90;17.60;99836.00;;;;4956307;28;87767;-64
2022/08/16 04:37:44;;;;;;;6.45;3.65;;;17.40;99.90;17.60;99845.00;;;;4955905;28;97719;-63
2022/08/16 04:40:10;;;;;;;5.70;4.25;;;17.50;99.90;17.70;99841.00;;;;4956052;28;87990;-64
2022/08/16 04:42:39;;;;;;;6.53;4.07;;;17.50;99.90;17.80;99844.00;;;;4956649;28;88372;-64
2022/08/16 04:45:06;;;;;;;4.68;3.50;;;17.60;99.90;17.80;99848.00;;;;4955026;28;87267;-64
2022/08/16 04:47:33;;;;;;;5.82;3.75;;;17.60;99.90;17.90;99848.00;;;;4953600;28;88182;-63
2022/08/16 04:50:04;;;;;;;5.75;4.80;;;17.70;99.90;18.00;99844.00;;;;4945903;28;88150;-64
2022/08/16 04:52:30;;;;;;;5.18;3.47;;;17.80;99.90;18.00;99852.00;;;;4952514;28;88715;-64
2022/08/16 04:54:56;;;;;;;4.88;3.65;;;17.80;99.90;18.10;99839.00;;;;4952047;28;87748;-63
2022/08/16 04:57:21;;;;;;;4.35;3.95;;;17.90;99.90;18.20;99848.00;;;;4952257;28;108921;-63
2022/08/16 04:59:47;;;;;;;4.20;3.08;;;18.00;99.90;18.20;99853.00;;;;4951071;28;116546;-63
2022/08/16 05:02:13;;;;;;;6.47;4.07;;;18.10;99.90;18.30;99856.00;;;;4951252;28;117577;-63
2022/08/16 05:04:38;;;;;;;3.88;3.30;;;18.10;99.90;18.40;99861.00;;;;4951655;28;110892;-63
2022/08/16 05:07:04;;;;;;;3.95;3.65;;;18.20;99.90;18.60;99856.00;;;;4951368;28;107650;-64
2022/08/16 05:09:30;;;;;;;7.65;3.80;;;18.30;99.90;18.70;99860.00;;;;4955053;28;101573;-63
2022/08/16 05:11:56;;;;;;;4.18;3.25;;;18.30;99.90;18.90;99858.00;;;;4954843;28;116686;-63
2022/08/16 05:14:21;;;;;;;4.22;3.67;;;18.60;99.90;19.00;99859.00;;;;4955678;28;87939;-64
2022/08/16 05:16:47;;;;;;;3.83;3.42;;;18.80;99.90;19.20;99865.00;;;;4954711;28;107231;-64
2022/08/16 05:19:12;;;;;;;6.03;3.22;;;18.90;99.90;19.40;99865.00;;;;4954493;28;117978;-63
2022/08/16 05:21:38;;;;;;;5.18;3.67;;;19.10;99.90;19.50;99861.00;;;;4954403;28;117514;-63
2022/08/16 05:24:06;;;;;;;4.63;3.75;;;19.20;99.90;19.70;99867.00;;;;4953861;28;110106;-64
2022/08/16 05:26:32;;;;;;;5.75;3.15;;;19.40;99.90;19.90;99874.00;;;;4956004;28;88140;-64
2022/08/16 05:28:59;;;;;;;4.20;2.65;;;19.60;99.90;20.10;99870.00;;;;4953618;28;88842;-64
2022/08/16 05:31:28;;;;;;;3.80;2.97;;;19.80;99.90;20.30;99873.00;;;;4955769;28;115939;-64
2022/08/16 05:33:53;;;;;;;3.88;3.40;;;20.00;99.90;20.50;99879.00;;;;4955119;28;87260;-65
2022/08/16 05:36:19;;;;;;;3.47;3.17;;;20.20;99.90;20.70;99890.00;;;;4955095;28;105106;-65
2022/08/16 05:38:46;;;;;;;4.45;2.97;;;20.40;99.90;20.90;99883.00;;;;4954643;28;104671;-63
2022/08/16 05:41:12;;;;;;;3.00;2.60;;;20.60;99.90;21.00;99889.00;;;;4955681;28;88798;-63
2022/08/16 05:43:38;;;;;;;5.20;3.47;;;20.70;99.90;21.20;99886.00;;;;4956393;28;87762;-63
2022/08/16 05:46:04;;;;;;;3.03;2.50;;;20.90;99.90;21.30;99894.00;;;;4954894;28;108335;-64
2022/08/16 05:48:30;;;;;;;4.55;3.35;;;21.10;99.90;21.50;99901.00;;;;4947320;28;90102;-64
2022/08/16 05:50:56;;;;;;;4.93;3.28;;;21.20;99.90;21.70;99902.00;;;;4936143;28;88642;-64
2022/08/16 05:53:22;;;;;;;3.78;3.00;;;21.40;99.90;21.80;99901.00;;;;4951268;28;88047;-65
2022/08/16 05:55:48;;;;;;;3.47;2.65;;;21.60;99.90;22.00;99901.00;;;;4956709;28;87944;-64
2022/08/16 05:58:14;;;;;;;1.95;1.85;;;21.70;99.90;22.20;99899.00;;;;4953425;28;104441;-65
2022/08/16 06:00:40;;;;;;;2.78;2.42;;;21.90;99.90;22.50;99897.00;;;;4955183;28;106776;-65
2022/08/16 06:03:05;;;;;;;3.53;1.85;;;22.10;99.90;22.70;99907.00;;;;4954772;28;107811;-65
2022/08/16 06:05:31;;;;;;;3.17;2.08;;;22.30;99.90;22.80;99897.00;;;;4954083;28;108838;-64
2022/08/16 06:07:57;;;;;;;3.88;2.33;;;22.50;99.90;23.00;99905.00;;;;4954272;28;118065;-64
2022/08/16 06:10:22;;;;;;;2.75;2.25;;;22.70;99.90;23.10;99904.00;;;;4955768;28;88033;-64
2022/08/16 06:12:48;;;;;;;1.95;1.48;;;22.80;99.00;23.30;99899.00;;;;4954038;28;109316;-65
2022/08/16 06:15:17;;;;;;;2.33;2.13;;;23.00;98.30;23.50;99909.00;;;;4952388;28;106743;-65
2022/08/16 06:17:44;;;;;;;2.13;1.92;;;23.20;97.30;23.70;99901.00;;;;4954724;28;108241;-65
2022/08/16 06:20:25;;;;;;;2.35;2.03;;;23.40;97.00;23.90;99898.00;;;;4955035;28;88409;-64
2022/08/16 06:22:55;;;;;;;1.83;1.55;;;23.60;95.10;24.00;99901.00;;;;4955691;28;86949;-64
2022/08/16 06:25:22;;;;;;;2.08;1.88;;;23.70;94.30;24.20;99906.00;;;;4954481;28;90594;-64
2022/08/16 06:27:48;;;;;;;3.63;1.90;;;23.90;93.70;24.30;99909.00;;;;4954431;28;87857;-65
2022/08/16 06:30:14;;;;;;;1.70;1.60;;;24.00;93.30;24.40;99915.00;;;;4953744;28;88864;-64
2022/08/16 06:32:40;;;;;;;4.53;2.08;;;24.20;92.10;24.50;99913.00;;;;4953610;28;103879;-64
2022/08/16 06:35:07;;;;;;;3.75;1.88;;;24.30;91.30;24.60;99910.00;;;;4955221;28;87695;-64
2022/08/16 06:37:33;;;;;;;2.15;1.77;;;24.40;90.40;24.70;99914.00;;;;4953251;28;108183;-64
2022/08/16 06:39:58;;;;;;;3.03;1.65;;;24.40;90.30;24.90;99910.00;;;;4953727;28;117348;-65
2022/08/16 06:42:24;;;;;;;3.72;2.05;;;24.60;89.60;25.00;99906.00;;;;4958011;28;87986;-65
2022/08/16 06:44:50;;;;;;;4.25;1.77;;;24.70;88.00;25.10;99912.00;;;;4957558;28;105261;-63
2022/08/16 06:47:16;;;;;;;2.08;1.58;;;24.90;86.70;25.30;99915.00;;;;4957351;28;117394;-64
2022/08/16 06:49:41;;;;;;;2.38;1.85;;;25.00;85.80;25.40;99906.00;;;;4952348;28;116695;-65
2022/08/16 06:52:07;;;;;;;3.22;2.25;;;25.20;85.10;25.60;99910.00;;;;4950566;28;111244;-64
2022/08/16 06:54:34;;;;;;;1.77;1.55;;;25.30;84.60;25.80;99919.00;;;;4957288;28;89005;-65
2022/08/16 06:57:00;;;;;;;2.53;1.85;;;25.50;83.90;26.10;99929.00;;;;4957678;28;108266;-65
2022/08/16 06:59:26;;;;;;;2.47;1.77;;;25.80;83.00;26.30;99935.00;;;;4958457;28;88009;-64
2022/08/16 07:01:53;;;;;;;1.48;1.35;;;26.00;80.90;26.40;99931.00;;;;4956727;28;109374;-64
2022/08/16 07:04:18;;;;;;;2.63;1.38;;;26.10;79.40;26.60;99933.00;;;;4957886;28;87774;-64
2022/08/16 07:06:47;;;;;;;2.17;1.52;;;26.30;78.60;26.80;99941.00;;;;4957704;28;89036;-65
2022/08/16 07:09:13;;;;;;;2.30;1.73;;;26.50;77.00;27.00;99940.00;;;;4957784;28;88046;-65
2022/08/16 07:11:39;;;;;;;2.83;2.40;;;26.70;76.60;27.20;99950.00;;;;4958067;28;87046;-64
2022/08/16 07:14:05;;;;;;;1.88;1.67;;;26.80;75.50;27.40;99952.00;;;;4957418;28;87759;-65
2022/08/16 07:16:31;;;;;;;3.05;1.88;;;27.10;74.20;27.60;99960.00;;;;4955043;28;87998;-65
2022/08/16 07:18:58;;;;;;;7.75;1.52;;;27.30;73.70;27.90;99954.00;;;;4956749;28;88799;-65
2022/08/16 07:21:24;;;;;;;2.70;1.63;;;27.50;73.50;28.20;99953.00;;;;4958441;28;87717;-64
2022/08/16 07:23:50;;;;;;;2.75;1.70;;;27.90;71.60;28.40;99963.00;;;;4956953;28;87798;-64
2022/08/16 07:26:22;;;;;;;1.85;1.75;;;28.10;68.20;28.50;99958.00;;;;4956336;28;116488;-64
2022/08/16 07:28:48;;;;;;;2.80;1.83;;;28.20;67.00;28.50;99968.00;;;;4956795;28;87884;-64
2022/08/16 07:31:15;;;;;;;1.83;1.73;;;28.30;66.70;28.70;99961.00;;;;4956998;28;89181;-64
2022/08/16 07:33:43;;;;;;;2.45;2.00;;;28.40;65.60;28.80;99968.00;;;;4957678;28;87950;-64
2022/08/16 07:36:11;;;;;;;1.77;1.58;;;28.50;65.10;29.00;99968.00;;;;4958290;28;87566;-65
2022/08/16 07:38:38;;;;;;;2.08;1.55;;;28.70;64.90;29.20;99965.00;;;;4956442;28;109351;-65
2022/08/16 07:41:04;;;;;;;1.85;1.30;;;28.90;64.00;29.40;99964.00;;;;4957389;28;87500;-65
2022/08/16 07:43:31;;;;;;;2.42;1.30;;;29.10;63.00;29.60;99967.00;;;;4956711;28;89081;-64
2022/08/16 07:45:58;;;;;;;1.70;1.60;;;29.30;61.60;29.70;99966.00;;;;4957098;28;88854;-64
2022/08/16 07:48:24;;;;;;;3.15;1.88;;;29.50;60.40;29.80;99965.00;;;;4957130;28;88579;-63
2022/08/16 07:50:50;;;;;;;1.35;1.25;;;29.60;60.00;30.00;99968.00;;;;4956269;28;110685;-64
2022/08/16 07:53:16;;;;;;;3.42;1.42;;;29.70;59.80;30.30;99967.00;;;;4955358;28;101186;-64
2022/08/16 07:55:42;;;;;;;1.25;1.15;;;30.00;59.90;30.60;99970.00;;;;4957080;28;90372;-63
2022/08/16 07:58:07;;;;;;;2.50;1.20;;;30.30;59.40;30.90;99976.00;;;;4957101;28;87816;-64
2022/08/16 08:00:34;;;;;;;1.70;1.50;;;30.50;58.60;31.20;99982.00;;;;4956654;28;105909;-64
2022/08/16 08:03:00;;;;;;;2.78;1.42;;;30.80;58.10;31.50;99993.00;;;;4957075;28;87519;-64
2022/08/16 08:05:27;;;;;;;1.80;1.50;;;31.10;57.20;31.60;99984.00;;;;4956577;28;109362;-65
2022/08/16 08:07:53;;;;;;;1.40;1.30;;;31.30;55.00;31.50;99996.00;;;;4955725;28;88912;-64
2022/08/16 08:10:21;;;;;;;3.85;1.98;;;31.30;54.00;31.40;99994.00;;;;4956708;28;87849;-64
2022/08/16 08:12:50;;;;;;;1.63;1.50;;;31.30;52.80;31.40;99987.00;;;;4957451;28;88292;-64
2022/08/16 08:15:18;;;;;;;1.33;1.17;;;31.20;52.90;31.40;99989.00;;;;4956658;28;90175;-64
2022/08/16 08:17:43;;;;;;;1.90;1.40;;;31.10;52.90;31.40;99988.00;;;;4956593;28;87885;-64
2022/08/16 08:20:13;;;;;;;3.58;1.35;;;31.10;51.40;31.10;99989.00;;;;4956517;28;87932;-65
2022/08/16 08:22:39;;;;;;;2.13;1.70;;;31.00;51.20;31.00;99986.00;;;;4956608;28;87772;-66
2022/08/16 08:25:06;;;;;;;1.30;1.20;;;30.90;51.40;31.00;99986.00;;;;4970357;28;115558;-64
2022/08/16 08:27:33;;;;;;;2.05;1.63;;;30.80;51.30;31.00;99996.00;;;;4956089;28;87617;-63
2022/08/16 08:29:58;;;;;;;4.18;1.48;;;30.80;50.90;30.90;100006.00;;;;4956131;28;87927;-64
2022/08/16 08:32:27;;;;;;;3.60;1.40;;;30.70;50.70;30.80;99994.00;;;;4955042;28;101564;-64
2022/08/16 08:34:57;;;;;;;1.63;1.52;;;30.70;51.00;30.80;100003.00;;;;4956001;28;88029;-65
2022/08/16 08:37:24;;;;;;;1.38;1.27;;;30.70;51.00;30.80;100005.00;;;;4955832;28;89068;-64
2022/08/16 08:39:50;;;;;;;1.77;1.55;;;30.60;51.10;31.00;100004.00;;;;4971071;28;87841;-65
2022/08/16 08:42:15;;;;;;;2.65;1.80;;;30.70;51.40;31.20;100007.00;;;;4956111;28;88027;-64
2022/08/16 08:44:41;;;;;;;2.60;1.77;;;30.90;51.00;31.40;100010.00;;;;4955390;28;102925;-64
2022/08/16 08:47:07;;;;;;;8.10;1.38;;;31.00;50.30;31.60;100013.00;;;;4955895;28;117393;-64
2022/08/16 08:49:34;;;;;;;10.45;1.52;;;31.20;50.40;31.60;100010.00;;;;4938117;28;99973;-65
2022/08/16 08:52:00;;;;;;;1.50;1.10;;;31.40;48.90;31.60;100003.00;;;;4951601;28;87703;-64
2022/08/16 08:54:26;;;;;;;2.30;1.63;;;31.30;49.10;31.70;100015.00;;;;4955261;28;107875;-65
2022/08/16 08:56:53;;;;;;;2.30;1.48;;;31.40;48.80;31.80;100012.00;;;;4954673;28;117678;-65
2022/08/16 08:59:19;;;;;;;2.35;1.70;;;31.40;48.70;31.90;100020.00;;;;4956513;28;87886;-65
2022/08/16 09:01:46;;;;;;;2.30;1.10;;;31.50;49.10;32.00;100015.00;;;;4955857;28;108374;-64
2022/08/16 09:04:12;;;;;;;2.67;1.50;;;31.60;48.70;32.40;100018.00;;;;4955437;28;88890;-64
2022/08/16 09:06:38;;;;;;;2.53;1.60;;;31.90;48.70;32.70;100008.00;;;;4955367;28;97883;-65
2022/08/16 09:09:05;;;;;;;2.70;1.30;;;32.20;48.60;32.90;100013.00;;;;4955648;28;99115;-64
2022/08/16 09:11:33;;;;;;;2.22;1.42;;;32.50;47.70;33.10;100004.00;;;;4956336;28;88159;-65
2022/08/16 09:13:59;;;;;;;2.00;1.13;;;32.60;47.30;33.30;100007.00;;;;4957733;28;87596;-65
2022/08/16 09:16:25;;;;;;;3.63;2.03;;;32.80;47.30;33.60;100006.00;;;;4955984;28;116990;-66
2022/08/16 09:18:50;;;;;;;1.20;1.10;;;33.10;47.00;33.80;99999.00;;;;4955599;28;89314;-66
2022/08/16 09:21:16;;;;;;;1.75;1.65;;;33.30;46.60;34.10;100004.00;;;;4954948;28;96245;-66
2022/08/16 09:23:42;;;;;;;1.77;1.45;;;33.50;45.90;34.20;100005.00;;;;4954983;28;88753;-66
2022/08/16 09:26:10;;;;;;;2.90;1.48;;;33.70;46.30;34.20;100005.00;;;;4955775;28;87829;-65
2022/08/16 09:28:37;;;;;;;1.48;1.00;;;33.70;44.30;34.00;100011.00;;;;4955102;28;87787;-66
2022/08/16 09:31:04;;;;;;;2.15;1.27;;;33.70;43.80;33.90;100006.00;;;;4955238;28;99483;-66
2022/08/16 09:33:30;;;;;;;1.70;1.30;;;33.60;44.10;34.00;100017.00;;;;4954746;28;107150;-65
2022/08/16 09:35:55;;;;;;;2.00;1.13;;;33.60;43.30;33.70;100007.00;;;;4954424;28;117198;-66
2022/08/16 09:38:25;;;;;;;1.60;1.35;;;33.40;42.80;33.50;100017.00;;;;4955218;28;110770;-66
2022/08/16 09:40:51;;;;;;;1.27;1.17;;;33.20;43.40;33.60;100006.00;;;;4955051;28;87845;-66
2022/08/16 09:43:19;;;;;;;1.52;0.90;;;33.20;43.60;33.70;100005.00;;;;4954815;28;88700;-66
2022/08/16 09:45:45;;;;;;;1.35;1.23;;;33.30;43.50;34.00;100000.00;;;;4954226;28;102871;-66
2022/08/16 09:48:14;;;;;;;2.05;1.55;;;33.40;43.80;34.30;100003.00;;;;4951603;28;90703;-66
2022/08/16 09:50:42;;;;;;;2.05;1.60;;;33.70;43.50;34.50;100009.00;;;;4955380;28;87755;-66
2022/08/16 09:53:14;;;;;;;2.22;1.15;;;33.80;43.80;34.60;100003.00;;;;4954596;28;89062;-66
2022/08/16 09:55:45;;;;;;;1.15;1.00;;;34.00;42.70;34.50;100004.00;;;;4954199;28;88994;-65
2022/08/16 09:58:12;;;;;;;2.30;1.52;;;34.00;42.00;34.50;100008.00;;;;4955589;28;87734;-65
2022/08/16 10:00:38;;;;;;;3.05;1.58;;;34.00;41.80;34.50;100001.00;;;;4954735;28;98060;-65
2022/08/16 10:03:04;;;;;;;1.55;1.27;;;34.00;41.80;34.60;100005.00;;;;4953419;28;104188;-66
2022/08/16 10:05:32;;;;;;;1.42;1.30;;;34.00;41.50;34.70;100002.00;;;;4954391;28;87748;-65
2022/08/16 10:07:58;;;;;;;2.00;1.58;;;34.10;41.70;34.90;100005.00;;;;4955181;28;88204;-66
2022/08/16 10:10:24;;;;;;;2.03;1.30;;;34.30;41.40;35.10;99998.00;;;;4954764;28;88789;-65
2022/08/16 10:15:35;;;;;;;1.88;1.40;;;34.60;40.90;35.60;99995.00;;;;4955838;28;87783;-66
2022/08/16 10:18:06;;;;;;;2.55;1.92;;;34.80;41.20;35.90;99998.00;;;;4958649;28;87686;-66
2022/08/16 10:20:37;;;;;;;1.42;1.13;;;35.10;41.00;36.10;100006.00;;;;4958987;28;87888;-66
2022/08/16 10:23:05;;;;;;;1.23;1.10;;;35.30;40.70;36.40;100006.00;;;;4960769;28;88045;-66
2022/08/16 10:25:31;;;;;;;1.40;1.17;;;35.50;40.80;36.50;100004.00;;;;4957542;28;94963;-66
2022/08/16 10:27:59;;;;;;;1.63;1.45;;;35.80;38.90;36.60;99998.00;;;;4958539;28;86750;-65
2022/08/16 10:30:24;;;;;;;1.90;1.38;;;35.90;38.80;36.90;100001.00;;;;4958044;28;88017;-65
2022/08/16 10:32:50;;;;;;;1.23;0.68;;;36.10;38.30;37.00;99999.00;;;;4956884;28;117905;-66
2022/08/16 10:35:16;;;;;;;1.55;1.15;;;36.20;37.30;36.90;99999.00;;;;4957596;28;115927;-65
2022/08/16 10:37:41;;;;;;;3.17;1.40;;;36.10;36.80;36.90;100004.00;;;;4956528;28;109959;-66
2022/08/16 10:40:10;;;;;;;1.20;0.80;;;36.10;37.10;37.00;100001.00;;;;4957434;28;108103;-66
2022/08/16 10:42:35;;;;;;;2.42;1.30;;;36.20;36.70;37.10;100007.00;;;;4957489;28;88672;-66
2022/08/16 10:45:02;;;;;;;2.03;1.48;;;36.30;35.60;36.80;99999.00;;;;4956242;28;116354;-66
2022/08/16 10:47:28;;;;;;;1.13;1.02;;;36.20;34.30;36.40;100006.00;;;;4958396;28;87785;-65
2022/08/16 10:49:54;;;;;;;1.63;1.10;;;35.80;35.30;36.50;100004.00;;;;4938696;28;87774;-65
2022/08/16 10:52:21;;;;;;;1.80;1.35;;;35.80;36.30;36.90;100008.00;;;;4953547;28;88326;-65